createdAt,value
2018-10-03T00:00:15.923Z,20.90
2018-10-03T00:02:44.237Z,8.80
2018-10-03T00:05:12.553Z,12.60
2018-10-03T00:07:41.454Z,6.57
2018-10-03T00:10:09.189Z,24.00
2018-10-03T00:12:37.513Z,8.63
2018-10-03T00:15:05.834Z,15.47
2018-10-03T00:17:34.748Z,10.57
2018-10-03T00:20:03.106Z,14.23
2018-10-03T00:22:30.857Z,17.73
2018-10-03T00:24:59.186Z,12.53
2018-10-03T00:27:27.510Z,10.63
2018-10-03T00:29:56.419Z,10.73
2018-10-03T00:32:24.163Z,10.43
2018-10-03T00:34:53.049Z,6.13
2018-10-03T00:37:20.800Z,7.60
2018-10-03T00:39:51.318Z,7.70
2018-10-03T00:42:18.398Z,6.67
2018-10-03T00:44:46.165Z,11.10
2018-10-03T00:47:15.082Z,21.13
2018-10-03T00:49:43.405Z,14.73
2018-10-03T00:52:11.170Z,20.97
2018-10-03T00:54:39.477Z,6.90
2018-10-03T00:57:07.798Z,6.97
2018-10-03T00:59:36.125Z,6.20
2018-10-03T01:02:04.452Z,14.03
2018-10-03T01:04:33.492Z,6.17
2018-10-03T01:07:02.375Z,7.50
2018-10-03T01:09:30.929Z,9.17
2018-10-03T01:11:59.020Z,7.87
2018-10-03T01:14:27.344Z,7.27
2018-10-03T01:16:55.084Z,7.93
2018-10-03T01:19:24.012Z,7.60
2018-10-03T01:21:52.320Z,10.33
2018-10-03T01:24:20.630Z,6.67
2018-10-03T01:26:48.941Z,7.73
2018-10-03T01:29:17.252Z,9.63
2018-10-03T01:31:45.573Z,13.77
2018-10-03T01:34:13.302Z,8.80
2018-10-03T01:36:42.202Z,6.97
2018-10-03T01:39:10.523Z,9.10
2018-10-03T01:41:38.857Z,4.20
2018-10-03T01:44:06.581Z,7.63
2018-10-03T01:46:35.481Z,10.60
2018-10-03T01:49:03.789Z,7.03
2018-10-03T01:51:32.139Z,9.37
2018-10-03T01:53:59.942Z,5.60
2018-10-03T01:56:28.836Z,7.03
2018-10-03T01:58:56.574Z,7.30
2018-10-03T02:01:25.469Z,8.67
2018-10-03T02:03:53.809Z,6.53
2018-10-03T02:06:21.543Z,6.40
2018-10-03T02:08:49.857Z,6.10
2018-10-03T02:11:18.173Z,5.63
2018-10-03T02:13:47.067Z,6.03
2018-10-03T02:16:15.396Z,6.33
2018-10-03T02:18:43.716Z,7.43
2018-10-03T02:21:11.453Z,6.13
2018-10-03T02:23:40.342Z,5.13
2018-10-03T02:26:08.704Z,15.17
2018-10-03T02:28:37.044Z,6.23
2018-10-03T02:31:05.419Z,10.40
2018-10-03T02:33:33.151Z,13.23
2018-10-03T02:36:02.058Z,14.37
2018-10-03T02:38:30.377Z,9.27
2018-10-03T02:41:00.046Z,21.17
2018-10-03T02:43:27.049Z,35.57
2018-10-03T02:45:55.361Z,5.77
2018-10-03T02:48:23.101Z,6.90
2018-10-03T02:50:51.405Z,7.73
2018-10-03T02:53:20.296Z,3.07
2018-10-03T02:55:48.651Z,6.07
2018-10-03T02:58:16.377Z,5.23
2018-10-03T03:00:44.698Z,6.43
2018-10-03T03:03:13.058Z,5.23
2018-10-03T03:05:42.225Z,5.27
2018-10-03T03:08:09.970Z,6.00
2018-10-03T03:10:38.276Z,3.50
2018-10-03T03:13:07.175Z,7.00
2018-10-03T03:15:34.909Z,4.83
2018-10-03T03:18:03.805Z,4.47
2018-10-03T03:20:31.541Z,6.00
2018-10-03T03:23:00.442Z,5.40
2018-10-03T03:25:28.173Z,7.00
2018-10-03T03:27:57.060Z,12.30
2018-10-03T03:30:25.393Z,14.80
2018-10-03T03:32:55.170Z,12.00
2018-10-03T03:35:22.075Z,9.57
2018-10-03T03:37:49.822Z,11.30
2018-10-03T03:40:18.720Z,6.70
2018-10-03T03:42:46.454Z,9.00
2018-10-03T03:45:14.768Z,13.30
2018-10-03T03:47:43.107Z,14.07
2018-10-03T03:50:11.539Z,8.03
2018-10-03T03:52:39.754Z,7.50
2018-10-03T03:55:08.060Z,8.50
2018-10-03T03:57:36.425Z,9.13
2018-10-03T04:00:04.755Z,8.10
2018-10-03T04:02:33.884Z,6.63
2018-10-03T04:05:01.391Z,16.87
2018-10-03T04:07:30.547Z,19.17
2018-10-03T04:09:59.454Z,10.40
2018-10-03T04:12:27.791Z,9.30
2018-10-03T04:14:56.123Z,21.93
2018-10-03T04:17:23.876Z,13.03
2018-10-03T04:19:52.800Z,10.37
2018-10-03T04:22:21.109Z,9.10
2018-10-03T04:24:48.842Z,9.93
2018-10-03T04:27:17.163Z,9.77
2018-10-03T04:29:45.496Z,10.00
2018-10-03T04:32:13.821Z,38.90
2018-10-03T04:34:42.733Z,13.60
2018-10-03T04:37:10.479Z,9.70
2018-10-03T04:39:39.382Z,9.30
2018-10-03T04:42:08.640Z,10.03
2018-10-03T04:44:36.184Z,9.47
2018-10-03T04:47:04.496Z,19.03
2018-10-03T04:49:32.809Z,9.07
2018-10-03T04:52:00.540Z,13.27
2018-10-03T04:54:28.951Z,8.60
2018-10-03T04:56:57.783Z,10.97
2018-10-03T04:59:25.547Z,9.87
2018-10-03T05:01:54.439Z,13.43
2018-10-03T05:04:22.785Z,10.27
2018-10-03T05:06:51.455Z,12.67
2018-10-03T05:09:19.177Z,10.07
2018-10-03T05:11:48.074Z,13.53
2018-10-03T05:14:16.385Z,9.53
2018-10-03T05:16:44.697Z,19.90
2018-10-03T05:19:12.429Z,7.00
2018-10-03T05:21:41.331Z,12.23
2018-10-03T05:24:09.650Z,13.93
2018-10-03T05:26:37.972Z,11.43
2018-10-03T05:29:06.300Z,10.43
2018-10-03T05:31:34.054Z,12.40
2018-10-03T05:34:02.950Z,6.20
2018-10-03T05:36:31.198Z,8.93
2018-10-03T05:38:59.473Z,9.07
2018-10-03T05:41:27.742Z,8.57
2018-10-03T05:43:56.240Z,8.03
2018-10-03T05:46:24.165Z,25.80
2018-10-03T05:48:52.343Z,12.43
2018-10-03T05:51:20.648Z,6.30
2018-10-03T05:53:49.799Z,9.57
2018-10-03T05:56:17.536Z,10.30
2018-10-03T05:58:46.450Z,11.77
2018-10-03T06:01:14.224Z,4.77
2018-10-03T06:03:43.117Z,6.93
2018-10-03T06:06:11.423Z,4.63
2018-10-03T06:08:39.736Z,5.20
2018-10-03T06:11:08.054Z,11.03
2018-10-03T06:13:36.376Z,4.33
2018-10-03T06:16:04.112Z,8.43
2018-10-03T06:18:32.440Z,7.60
2018-10-03T06:21:01.317Z,6.07
2018-10-03T06:23:29.244Z,5.83
2018-10-03T06:25:57.381Z,10.07
2018-10-03T06:28:27.288Z,7.63
2018-10-03T06:30:54.790Z,2.77
2018-10-03T06:33:23.141Z,4.17
2018-10-03T06:35:52.015Z,4.40
2018-10-03T06:38:20.324Z,4.77
2018-10-03T06:40:48.651Z,2.33
2018-10-03T06:43:16.377Z,1.70
2018-10-03T06:45:44.711Z,4.57
2018-10-03T06:48:13.006Z,5.80
2018-10-03T06:50:41.900Z,1.83
2018-10-03T06:53:09.625Z,2.60
2018-10-03T06:55:38.528Z,4.30
2018-10-03T06:58:06.850Z,5.60
2018-10-03T07:00:34.584Z,3.83
2018-10-03T07:03:03.519Z,1.20
2018-10-03T07:05:31.838Z,3.37
2018-10-03T07:08:00.143Z,4.23
2018-10-03T07:10:28.468Z,2.10
2018-10-03T07:12:56.870Z,2.13
2018-10-03T07:15:25.128Z,4.80
2018-10-03T07:17:53.455Z,4.03
2018-10-03T07:20:21.776Z,1.13
2018-10-03T07:22:50.305Z,1.33
2018-10-03T07:25:18.065Z,4.27
2018-10-03T07:27:46.370Z,2.20
2018-10-03T07:30:15.266Z,3.03
2018-10-03T07:32:43.633Z,3.37
2018-10-03T07:35:11.909Z,1.20
2018-10-03T07:37:40.487Z,2.63
2018-10-03T07:40:08.819Z,5.47
2018-10-03T07:42:36.555Z,2.73
2018-10-03T07:45:05.457Z,3.33
2018-10-03T07:47:33.809Z,5.07
2018-10-03T07:50:02.116Z,2.83
2018-10-03T07:52:30.777Z,4.03
2018-10-03T07:54:58.523Z,4.03
2018-10-03T07:57:27.752Z,4.07
2018-10-03T07:59:57.424Z,2.33
2018-10-03T08:02:25.163Z,3.40
2018-10-03T08:04:54.122Z,3.13
2018-10-03T08:07:22.472Z,4.23
2018-10-03T08:09:50.927Z,30.03
2018-10-03T08:12:19.229Z,4.53
2018-10-03T08:14:47.799Z,3.77
2018-10-03T08:17:15.593Z,5.80
2018-10-03T08:19:43.859Z,3.77
2018-10-03T08:22:12.819Z,6.10
2018-10-03T08:24:41.285Z,5.17
2018-10-03T08:27:08.877Z,4.33
2018-10-03T08:29:37.789Z,8.27
2018-10-03T08:32:06.173Z,3.63
2018-10-03T08:34:33.906Z,2.80
2018-10-03T08:37:02.816Z,3.70
2018-10-03T08:39:31.197Z,5.27
2018-10-03T08:41:59.801Z,2.80
2018-10-03T08:44:27.898Z,2.50
2018-10-03T08:46:56.242Z,3.03
2018-10-03T08:49:24.614Z,3.67
2018-10-03T08:51:52.821Z,1.40
2018-10-03T08:54:21.689Z,2.00
2018-10-03T08:56:49.483Z,7.57
2018-10-03T08:59:18.404Z,3.90
2018-10-03T09:01:46.725Z,2.07
2018-10-03T09:04:15.119Z,2.07
2018-10-03T09:06:43.480Z,3.03
2018-10-03T09:09:11.878Z,2.93
2018-10-03T09:11:40.225Z,4.30
2018-10-03T09:14:07.944Z,2.87
2018-10-03T09:16:36.275Z,3.20
2018-10-03T09:19:04.587Z,3.07
2018-10-03T09:21:32.992Z,1.50
2018-10-03T09:24:01.839Z,2.77
2018-10-03T09:26:30.132Z,1.57
2018-10-03T09:28:57.930Z,1.33
2018-10-03T09:31:27.691Z,2.03
2018-10-03T09:33:55.144Z,2.40
2018-10-03T09:36:23.695Z,2.23
2018-10-03T09:38:51.223Z,0.70
2018-10-03T09:41:20.111Z,2.47
2018-10-03T09:43:48.443Z,1.40
2018-10-03T09:46:16.752Z,1.90
2018-10-03T09:48:44.527Z,2.50
2018-10-03T09:51:13.430Z,2.40
2018-10-03T09:53:41.782Z,1.40
2018-10-03T09:56:09.493Z,5.73
2018-10-03T09:58:38.392Z,2.83
2018-10-03T10:01:06.131Z,1.20
2018-10-03T10:03:35.020Z,0.43
2018-10-03T10:06:03.343Z,1.97
2018-10-03T10:08:31.700Z,1.53
2018-10-03T10:11:00.085Z,2.20
2018-10-03T10:13:28.339Z,2.30
2018-10-03T10:15:56.089Z,2.53
2018-10-03T10:18:24.403Z,2.00
2018-10-03T10:20:53.334Z,0.90
2018-10-03T10:23:21.855Z,0.80
2018-10-03T10:25:49.950Z,0.50
2018-10-03T10:28:18.285Z,2.97
2018-10-03T10:30:46.703Z,3.50
2018-10-03T10:33:15.034Z,3.50
2018-10-03T10:35:43.384Z,1.30
2018-10-03T10:38:11.735Z,1.60
2018-10-03T10:40:39.697Z,1.80
2018-10-03T10:43:08.422Z,3.80
2018-10-03T10:45:36.958Z,4.73
2018-10-03T10:48:05.319Z,13.27
2018-10-03T10:50:33.639Z,5.73
2018-10-03T10:53:02.268Z,3.70
2018-10-03T10:55:30.610Z,3.70
2018-10-03T10:57:58.668Z,4.13
2018-10-03T11:00:26.993Z,1.90
2018-10-03T11:02:55.568Z,2.87
2018-10-03T11:05:23.893Z,1.90
2018-10-03T11:07:51.985Z,1.57
2018-10-03T11:10:19.779Z,1.53
2018-10-03T11:12:52.043Z,2.67
2018-10-03T11:15:16.999Z,1.70
2018-10-03T11:17:45.321Z,1.67
2018-10-03T11:20:13.682Z,1.47
2018-10-03T11:22:42.010Z,2.07
2018-10-03T11:25:09.845Z,2.23
2018-10-03T11:27:38.318Z,2.57
2018-10-03T11:30:07.262Z,2.67
2018-10-03T11:32:36.326Z,2.40
2018-10-03T11:35:04.730Z,2.57
2018-10-03T11:37:33.046Z,2.17
2018-10-03T11:40:01.442Z,2.03
2018-10-03T11:42:30.048Z,1.50
2018-10-03T11:44:58.128Z,1.57
2018-10-03T11:47:28.015Z,2.20
2018-10-03T11:49:56.869Z,0.97
2018-10-03T11:52:25.220Z,6.23
2018-10-03T11:54:53.779Z,2.83
2018-10-03T11:57:21.897Z,2.97
2018-10-03T11:59:50.256Z,2.87
2018-10-03T12:02:18.608Z,1.87
2018-10-03T12:04:46.918Z,3.57
2018-10-03T12:07:15.254Z,4.20
2018-10-03T12:09:42.991Z,3.80
2018-10-03T12:12:11.408Z,5.60
2018-10-03T12:14:40.322Z,4.97
2018-10-03T12:17:08.636Z,4.13
2018-10-03T12:19:36.981Z,1.57
2018-10-03T12:22:06.413Z,2.80
2018-10-03T12:24:33.939Z,3.47
2018-10-03T12:27:03.075Z,1.63
2018-10-03T12:29:31.180Z,2.07
2018-10-03T12:31:58.922Z,2.03
2018-10-03T12:34:27.246Z,3.43
2018-10-03T12:36:55.563Z,5.47
2018-10-03T12:39:24.473Z,1.83
2018-10-03T12:41:52.801Z,3.67
2018-10-03T12:44:21.170Z,3.70
2018-10-03T12:46:48.884Z,2.97
2018-10-03T12:49:17.797Z,5.00
2018-10-03T12:51:47.038Z,7.40
2018-10-03T12:54:15.379Z,5.50
2018-10-03T12:56:43.113Z,4.00
2018-10-03T12:59:12.031Z,7.93
2018-10-03T13:01:40.368Z,1.57
2018-10-03T13:04:08.719Z,2.20
2018-10-03T13:06:37.256Z,3.27
2018-10-03T13:09:05.355Z,1.90
2018-10-03T13:11:33.693Z,1.70
2018-10-03T13:14:02.312Z,3.37
2018-10-03T13:16:29.801Z,3.17
2018-10-03T13:18:58.696Z,2.30
2018-10-03T13:21:27.014Z,2.17
2018-10-03T13:23:55.339Z,2.13
2018-10-03T13:26:23.669Z,2.37
2018-10-03T13:28:52.011Z,1.93
2018-10-03T13:31:20.388Z,3.40
2018-10-03T13:36:42.163Z,4.30
2018-10-03T13:39:10.492Z,4.20
2018-10-03T13:41:39.446Z,3.47
2018-10-03T13:44:07.176Z,3.60
2018-10-03T13:46:35.550Z,6.07
2018-10-03T13:49:04.406Z,4.43
2018-10-03T13:51:32.731Z,4.63
2018-10-03T13:54:00.472Z,3.90
2018-10-03T13:56:29.412Z,2.23
2018-10-03T13:58:57.822Z,2.30
2018-10-03T14:01:26.413Z,6.67
2018-10-03T14:03:54.757Z,4.20
2018-10-03T14:06:23.110Z,7.20
2018-10-03T14:08:51.668Z,2.30
2018-10-03T14:11:20.796Z,4.30
2018-10-03T14:13:48.167Z,3.27
2018-10-03T14:16:16.765Z,9.53
2018-10-03T14:18:45.076Z,2.57
2018-10-03T14:21:12.823Z,3.10
2018-10-03T14:23:41.728Z,2.60
2018-10-03T14:26:10.112Z,6.50
2018-10-03T14:28:38.433Z,5.70
2018-10-03T14:31:06.850Z,2.00
2018-10-03T14:33:36.151Z,2.40
2018-10-03T14:36:03.521Z,3.83
2018-10-03T14:38:31.852Z,2.33
2018-10-03T14:41:00.908Z,3.30
2018-10-03T14:43:28.956Z,3.93
2018-10-03T14:45:57.544Z,1.33
2018-10-03T14:48:26.096Z,4.20
2018-10-03T14:50:54.193Z,2.63
2018-10-03T14:53:22.512Z,3.83
2018-10-03T14:55:50.863Z,2.77
2018-10-03T14:58:19.304Z,4.53
2018-10-03T15:00:47.580Z,2.30
2018-10-03T15:03:15.326Z,1.23
2018-10-03T15:05:43.920Z,2.93
2018-10-03T15:08:13.036Z,3.57
2018-10-03T15:10:41.125Z,1.67
2018-10-03T15:13:09.522Z,1.70
2018-10-03T15:15:37.866Z,2.10
2018-10-03T15:18:05.677Z,3.23
2018-10-03T15:20:34.547Z,2.03
2018-10-03T15:23:02.873Z,4.47
2018-10-03T15:25:31.204Z,4.63
2018-10-03T15:27:59.528Z,3.80
2018-10-03T15:30:27.880Z,18.23
2018-10-03T15:32:56.230Z,6.67
2018-10-03T15:35:23.995Z,3.73
2018-10-03T15:37:52.892Z,2.90
2018-10-03T15:40:20.640Z,3.60
2018-10-03T15:42:49.845Z,3.43
2018-10-03T15:45:17.941Z,3.97
2018-10-03T15:47:46.282Z,2.87
2018-10-03T15:50:14.609Z,3.53
2018-10-03T15:52:42.357Z,5.73
2018-10-03T15:55:11.296Z,3.07
2018-10-03T15:57:39.589Z,7.23
2018-10-03T16:00:07.922Z,4.10
2018-10-03T16:02:36.266Z,6.47
2018-10-03T16:05:04.585Z,4.80
2018-10-03T16:07:32.909Z,5.10
2018-10-03T16:10:00.689Z,5.60
2018-10-03T16:12:29.737Z,5.20
2018-10-03T16:14:58.068Z,6.67
2018-10-03T16:17:26.401Z,4.80
2018-10-03T16:19:54.399Z,6.90
2018-10-03T16:22:23.539Z,5.70
2018-10-03T16:24:51.336Z,4.27
2018-10-03T16:27:20.272Z,4.67
2018-10-03T16:29:48.602Z,5.07
2018-10-03T16:32:17.314Z,5.73
2018-10-03T16:34:45.577Z,9.17
2018-10-03T16:37:13.897Z,5.83
2018-10-03T16:39:41.667Z,6.03
2018-10-03T16:42:10.588Z,5.30
2018-10-03T16:44:38.890Z,7.20
2018-10-03T16:47:06.831Z,6.30
2018-10-03T16:49:36.519Z,8.60
2018-10-03T16:52:04.862Z,8.03
2018-10-03T16:54:33.228Z,7.53
2018-10-03T16:57:01.569Z,7.70
2018-10-03T16:59:30.130Z,7.97
2018-10-03T17:01:58.759Z,5.67
2018-10-03T17:04:27.141Z,7.70
2018-10-03T17:06:55.510Z,6.00
2018-10-03T17:09:23.789Z,6.87
2018-10-03T17:11:52.104Z,7.17
2018-10-03T17:14:20.602Z,11.30
2018-10-03T17:16:48.352Z,6.73
2018-10-03T17:19:17.359Z,8.20
2018-10-03T17:21:46.132Z,9.60
2018-10-03T17:24:14.271Z,8.87
2018-10-03T17:26:42.603Z,8.90
2018-10-03T17:29:10.954Z,8.00
2018-10-03T17:31:38.834Z,7.60
2018-10-03T17:34:07.676Z,5.17
2018-10-03T17:36:36.337Z,5.00
2018-10-03T17:39:04.687Z,5.40
2018-10-03T17:41:32.446Z,5.40
2018-10-03T17:44:01.369Z,6.93
2018-10-03T17:46:29.727Z,5.33
2018-10-03T17:48:57.471Z,7.23
2018-10-03T17:51:25.792Z,7.40
2018-10-03T17:53:54.743Z,9.53
2018-10-03T17:56:23.121Z,8.63
2018-10-03T17:58:51.510Z,7.73
2018-10-03T18:01:19.849Z,8.03
2018-10-03T18:03:48.177Z,10.63
2018-10-03T18:06:16.608Z,22.37
2018-10-03T18:08:45.030Z,22.30
2018-10-03T18:11:13.397Z,16.53
2018-10-03T18:13:42.107Z,25.40
2018-10-03T18:16:10.513Z,19.77
2018-10-03T18:18:38.852Z,13.87
2018-10-03T18:21:07.216Z,13.57
2018-10-03T18:23:35.603Z,17.97
2018-10-03T18:26:04.035Z,21.43
2018-10-03T18:28:32.377Z,31.60
2018-10-03T18:31:00.751Z,28.77
2018-10-03T18:33:29.159Z,29.33
2018-10-03T18:35:57.469Z,80.60
2018-10-03T18:38:25.824Z,29.10
2018-10-03T18:40:53.606Z,22.10
2018-10-03T18:43:22.537Z,18.70
2018-10-03T18:45:50.882Z,36.97
2018-10-03T18:48:19.623Z,46.60
2018-10-03T18:50:47.993Z,39.07
2018-10-03T18:53:16.328Z,25.27
2018-10-03T18:55:44.114Z,16.67
2018-10-03T18:58:13.085Z,34.67
2018-10-03T19:00:41.449Z,25.07
2018-10-03T19:03:10.432Z,27.00
2018-10-03T19:05:39.067Z,19.13
2018-10-03T19:08:07.431Z,16.83
2018-10-03T19:10:36.010Z,14.27
2018-10-03T19:13:04.123Z,16.87
2018-10-03T19:15:32.474Z,19.33
2018-10-03T19:18:00.893Z,17.90
2018-10-03T19:20:29.227Z,15.00
2018-10-03T19:22:57.532Z,16.43
2018-10-03T19:25:26.158Z,15.73
2018-10-03T19:27:55.002Z,14.30
2018-10-03T19:30:23.333Z,11.50
2018-10-03T19:32:51.672Z,10.30
2018-10-03T19:35:19.426Z,6.63
2018-10-03T19:37:47.796Z,6.67
2018-10-03T19:40:16.124Z,21.30
2018-10-03T19:42:45.042Z,8.13
2018-10-03T19:45:12.789Z,6.77
2018-10-03T19:47:41.729Z,2.80
2018-10-03T19:50:10.405Z,4.30
2018-10-03T19:52:38.755Z,3.93
2018-10-03T19:55:07.096Z,4.33
2018-10-03T19:57:35.440Z,2.73
2018-10-03T20:00:03.769Z,4.40
2018-10-03T20:02:32.105Z,2.77
2018-10-03T20:05:00.491Z,4.47
2018-10-03T20:07:28.859Z,2.83
2018-10-03T20:09:56.628Z,2.50
2018-10-03T20:12:25.522Z,16.87
2018-10-03T20:14:54.668Z,6.93
2018-10-03T20:17:23.226Z,5.40
2018-10-03T20:19:51.367Z,6.30
2018-10-03T20:22:19.717Z,2.70
2018-10-03T20:24:48.053Z,2.83
2018-10-03T20:27:16.685Z,2.13
2018-10-03T20:29:45.598Z,5.17
2018-10-03T20:32:13.372Z,3.10
2018-10-03T20:34:43.075Z,2.57
2018-10-03T20:37:10.631Z,3.43
2018-10-03T20:39:38.983Z,2.37
2018-10-03T20:42:06.836Z,4.07
2018-10-03T20:44:35.722Z,3.67
2018-10-03T20:47:03.493Z,4.63
2018-10-03T20:49:32.450Z,8.13
2018-10-03T20:52:00.790Z,10.63
2018-10-03T20:54:29.313Z,10.33
2018-10-03T20:56:57.526Z,2.53
2018-10-03T20:59:25.913Z,3.30
2018-10-03T21:01:54.622Z,2.87
2018-10-03T21:04:22.458Z,2.07
2018-10-03T21:06:51.374Z,1.20
2018-10-03T21:09:19.731Z,2.17
2018-10-03T21:11:47.684Z,6.43
2018-10-03T21:14:15.818Z,5.50
2018-10-03T21:16:44.736Z,2.43
2018-10-03T21:19:13.050Z,2.17
2018-10-03T21:21:40.817Z,2.67
2018-10-03T21:24:09.141Z,3.37
2018-10-03T21:26:37.474Z,2.50
2018-10-03T21:29:05.878Z,2.87
2018-10-03T21:31:35.005Z,6.73
2018-10-03T21:34:03.187Z,4.53
2018-10-03T21:36:31.513Z,5.20
2018-10-03T21:38:59.865Z,2.57
2018-10-03T21:41:28.183Z,3.83
2018-10-03T21:43:56.504Z,3.13
2018-10-03T21:46:24.847Z,4.47
2018-10-03T21:48:53.208Z,4.37
2018-10-03T21:51:20.959Z,2.97
2018-10-03T21:53:49.862Z,2.43
2018-10-03T21:56:18.213Z,1.27
2018-10-03T21:58:46.003Z,1.50
2018-10-03T22:01:14.290Z,5.47
2018-10-03T22:03:42.673Z,4.57
2018-10-03T22:06:11.571Z,5.00
2018-10-03T22:08:40.158Z,2.00
2018-10-03T22:11:07.903Z,2.03
2018-10-03T22:13:36.851Z,2.63
2018-10-03T22:16:05.173Z,1.80
2018-10-03T22:18:32.908Z,2.03
2018-10-03T22:21:01.812Z,0.80
2018-10-03T22:23:30.123Z,0.80
2018-10-03T22:25:58.440Z,1.50
2018-10-03T22:28:26.194Z,1.20
2018-10-03T22:30:55.146Z,4.03
2018-10-03T22:33:23.456Z,2.13
2018-10-03T22:35:51.191Z,2.47
2018-10-03T22:38:19.509Z,1.13
2018-10-03T22:40:48.421Z,0.80
2018-10-03T22:43:16.156Z,2.53
2018-10-03T22:45:45.046Z,1.77
2018-10-03T22:48:13.364Z,2.53
2018-10-03T22:50:41.669Z,2.27
2018-10-03T22:53:10.006Z,1.07
2018-10-03T22:55:37.744Z,1.93
2018-10-03T22:58:06.065Z,1.70
2018-10-03T23:00:34.976Z,1.77
2018-10-03T23:03:03.275Z,2.20
2018-10-03T23:05:31.586Z,5.57
2018-10-03T23:07:59.345Z,3.47
2018-10-03T23:10:28.242Z,2.63
2018-10-03T23:12:56.563Z,3.57
2018-10-03T23:15:24.297Z,2.57
2018-10-03T23:17:53.187Z,3.93
2018-10-03T23:20:24.699Z,3.63
2018-10-03T23:22:49.902Z,2.90
2018-10-03T23:25:18.238Z,5.87
2018-10-03T23:27:47.166Z,3.53
2018-10-03T23:30:15.468Z,6.07
2018-10-03T23:32:43.816Z,3.97
2018-10-03T23:35:11.554Z,6.70
2018-10-03T23:37:39.873Z,7.00
2018-10-03T23:40:08.776Z,6.77
2018-10-03T23:42:37.110Z,10.77
2018-10-03T23:45:05.420Z,7.57
2018-10-03T23:47:33.149Z,8.17
2018-10-03T23:50:01.466Z,7.53
2018-10-03T23:52:30.361Z,6.00
2018-10-03T23:54:58.688Z,6.27
2018-10-03T23:57:27.046Z,6.93
2018-10-03T23:59:55.332Z,7.53
